Time;durP1;ratioP1;P1;durP2;ratioP2;P2;SDS_P1;SDS_P2;PMS_P1;PMS_P2;Temp;Humidity;BMP_temperature;BMP_pressure;BME280_temperature;BME280_humidity;BME280_pressure;Samples;Min_cycle;Max_cycle;Signal;HPM_P1;HPM_P2
2021/06/13 00:01:33;;;;;;;8.77;7.87;;;18.10;99.90;;;;;;4864683;29;20340;-96
2021/06/13 00:03:59;;;;;;;8.53;7.80;;;18.20;99.90;;;;;;4865230;29;20457;-96
2021/06/13 00:06:25;;;;;;;7.67;6.97;;;18.10;99.90;;;;;;4856273;29;20190;-96
2021/06/13 00:08:50;;;;;;;7.93;7.27;;;18.10;99.90;;;;;;4850198;29;20212;-96
2021/06/13 00:11:21;;;;;;;8.33;7.10;;;18.30;99.90;;;;;;4881028;29;20462;-96
2021/06/13 00:13:49;;;;;;;8.07;7.37;;;18.30;99.90;;;;;;4862163;29;20709;-96
2021/06/13 00:16:18;;;;;;;8.73;7.93;;;18.30;99.90;;;;;;4864199;29;20503;-96
2021/06/13 00:18:45;;;;;;;8.00;7.30;;;18.20;99.90;;;;;;4863924;29;20565;-96
2021/06/13 00:21:12;;;;;;;7.70;7.00;;;18.20;99.90;;;;;;4867403;29;20514;-96
2021/06/13 00:23:40;;;;;;;8.17;7.43;;;18.30;99.90;;;;;;4868639;29;20447;-96
2021/06/13 00:26:08;;;;;;;8.77;7.97;;;18.20;99.90;;;;;;4868639;29;21241;-96
2021/06/13 00:28:37;;;;;;;8.70;7.80;;;18.20;99.90;;;;;;4862148;29;20466;-96
2021/06/13 00:31:04;;;;;;;9.03;8.20;;;18.20;99.90;;;;;;4869211;29;20465;-95
2021/06/13 00:33:30;;;;;;;9.63;8.30;;;18.20;99.90;;;;;;4866843;29;21030;-96
2021/06/13 00:35:55;;;;;;;8.33;7.40;;;18.20;99.90;;;;;;4876769;29;21272;-96
2021/06/13 00:38:21;;;;;;;8.60;7.83;;;18.20;99.90;;;;;;4868186;29;20216;-96
2021/06/13 00:40:47;;;;;;;9.10;8.20;;;18.20;99.90;;;;;;4865789;29;20330;-95
2021/06/13 00:43:12;;;;;;;8.60;7.77;;;18.20;99.90;;;;;;4863240;29;20208;-96
2021/06/13 00:45:38;;;;;;;7.87;7.17;;;18.10;99.90;;;;;;4861325;29;20204;-96
2021/06/13 00:48:04;;;;;;;9.50;8.70;;;18.00;99.90;;;;;;4871151;29;20213;-96
2021/06/13 00:50:51;;;;;;;8.00;7.30;;;18.00;99.90;;;;;;4881801;29;20189;-96
2021/06/13 00:53:17;;;;;;;8.63;7.67;;;18.00;99.90;;;;;;4882405;29;20537;-96
2021/06/13 00:55:59;;;;;;;8.07;7.37;;;18.00;99.90;;;;;;4874150;29;20522;-96
2021/06/13 00:58:25;;;;;;;9.13;7.60;;;18.10;99.90;;;;;;4877449;29;20465;-96
2021/06/13 01:01:04;;;;;;;8.60;7.80;;;18.10;99.90;;;;;;4876436;29;20454;-96
2021/06/13 01:03:29;;;;;;;8.83;7.83;;;18.20;99.90;;;;;;4871708;29;20453;-96
2021/06/13 01:06:03;;;;;;;8.93;8.13;;;18.10;99.90;;;;;;4877951;29;21599;-96
2021/06/13 01:08:41;;;;;;;10.03;8.87;;;18.00;99.90;;;;;;4878417;29;20209;-96
2021/06/13 01:11:34;;;;;;;9.20;8.30;;;18.00;99.90;;;;;;4873410;29;20661;-96
2021/06/13 01:14:37;;;;;;;8.80;8.00;;;17.90;99.90;;;;;;4862763;29;20450;-96
2021/06/13 01:17:30;;;;;;;8.63;7.77;;;17.90;99.90;;;;;;4867907;29;20957;-96
2021/06/13 01:20:05;;;;;;;9.27;8.33;;;17.90;99.90;;;;;;4865110;29;20482;-96
2021/06/13 01:23:21;;;;;;;9.30;8.40;;;17.90;99.90;;;;;;4867649;29;20508;-96
2021/06/13 01:26:17;;;;;;;9.50;8.70;;;17.80;99.90;;;;;;4863326;29;20478;-96
2021/06/13 01:29:00;;;;;;;7.83;7.23;;;17.70;99.90;;;;;;4865613;29;20456;-96
2021/06/13 01:31:33;;;;;;;9.27;7.47;;;17.70;99.90;;;;;;4863925;29;21069;-96
2021/06/13 01:34:02;;;;;;;8.97;8.20;;;17.80;99.90;;;;;;4879954;29;20454;-96
2021/06/13 01:36:32;;;;;;;9.47;8.57;;;17.80;99.90;;;;;;4867511;29;20471;-96
2021/06/13 01:38:58;;;;;;;8.67;7.90;;;17.60;99.90;;;;;;4867931;29;20560;-96
2021/06/13 01:41:29;;;;;;;8.23;7.40;;;17.60;99.90;;;;;;4867081;29;21402;-96
2021/06/13 01:43:56;;;;;;;8.53;7.63;;;17.60;99.90;;;;;;4864130;29;20205;-95
2021/06/13 01:46:31;;;;;;;7.90;7.20;;;17.50;99.90;;;;;;4865796;29;20446;-96
2021/06/13 01:48:58;;;;;;;7.47;6.63;;;17.50;99.90;;;;;;4859208;29;20844;-95
2021/06/13 01:51:25;;;;;;;7.93;7.23;;;17.40;99.90;;;;;;4865335;29;20481;-96
2021/06/13 01:53:51;;;;;;;8.17;7.57;;;17.40;99.90;;;;;;4867409;29;20979;-96
2021/06/13 01:56:18;;;;;;;9.37;7.30;;;17.30;99.90;;;;;;4865382;29;20461;-96
2021/06/13 01:58:51;;;;;;;7.87;7.27;;;17.30;99.90;;;;;;4866841;29;20483;-96
2021/06/13 02:01:20;;;;;;;9.07;8.17;;;17.20;99.90;;;;;;4866119;29;20458;-96
2021/06/13 02:03:50;;;;;;;8.33;7.53;;;17.20;99.90;;;;;;4867942;29;20994;-96
2021/06/13 02:06:19;;;;;;;9.10;8.20;;;17.20;99.90;;;;;;4869639;29;20453;-96
2021/06/13 02:08:48;;;;;;;9.20;8.30;;;17.00;99.90;;;;;;4874223;29;20450;-96
2021/06/13 02:11:17;;;;;;;8.73;7.63;;;17.00;99.90;;;;;;4885335;29;20455;-96
2021/06/13 02:13:45;;;;;;;9.07;8.03;;;17.00;99.90;;;;;;4871867;29;20488;-96
2021/06/13 02:16:14;;;;;;;8.57;7.63;;;16.80;99.90;;;;;;4872227;29;20474;-96
2021/06/13 02:18:44;;;;;;;8.57;7.73;;;16.80;99.90;;;;;;4865843;29;20478;-96
2021/06/13 02:21:12;;;;;;;8.40;7.60;;;16.80;99.90;;;;;;4864905;29;20446;-96
2021/06/13 02:23:43;;;;;;;8.20;6.97;;;16.80;99.90;;;;;;4870026;29;20476;-96
2021/06/13 02:26:10;;;;;;;8.33;7.63;;;16.80;99.90;;;;;;4867131;29;20451;-96
2021/06/13 02:28:51;;;;;;;9.53;8.57;;;16.80;99.90;;;;;;4874347;29;21896;-96
2021/06/13 02:31:21;;;;;;;9.03;8.13;;;16.80;99.90;;;;;;4872375;29;20473;-96
2021/06/13 02:33:48;;;;;;;8.50;7.70;;;16.70;99.90;;;;;;4872529;29;20553;-96
2021/06/13 02:36:14;;;;;;;8.60;7.80;;;16.60;99.90;;;;;;4865269;29;20475;-96
2021/06/13 02:38:40;;;;;;;9.00;7.80;;;16.60;99.90;;;;;;4863248;29;20503;-96
2021/06/13 02:41:06;;;;;;;9.20;8.40;;;16.60;99.90;;;;;;4865224;29;20461;-96
2021/06/13 02:43:32;;;;;;;8.13;7.33;;;16.60;99.90;;;;;;4873196;29;20269;-96
2021/06/13 02:45:58;;;;;;;8.37;7.67;;;16.50;99.90;;;;;;4866500;29;20217;-96
2021/06/13 02:48:24;;;;;;;8.63;7.73;;;16.50;99.90;;;;;;4869379;29;21269;-96
2021/06/13 02:50:52;;;;;;;8.50;7.70;;;16.50;99.90;;;;;;4859177;29;20605;-96
2021/06/13 02:53:32;;;;;;;8.17;7.30;;;16.50;99.90;;;;;;4861245;29;20450;-96
2021/06/13 02:56:02;;;;;;;8.47;7.60;;;16.50;99.90;;;;;;4861114;29;20488;-96
2021/06/13 02:58:36;;;;;;;7.53;6.80;;;16.50;99.90;;;;;;4858469;29;20478;-95
2021/06/13 03:01:02;;;;;;;8.57;7.30;;;16.50;99.90;;;;;;4866348;29;20450;-96
2021/06/13 03:03:31;;;;;;;8.73;7.17;;;16.40;99.90;;;;;;4860319;29;21040;-95
2021/06/13 03:05:58;;;;;;;7.60;6.90;;;16.40;99.90;;;;;;4863777;29;20520;-95
2021/06/13 03:08:23;;;;;;;8.70;6.60;;;16.50;99.90;;;;;;4876732;29;20811;-94
2021/06/13 03:10:52;;;;;;;7.40;6.70;;;16.50;99.90;;;;;;4858383;29;20450;-95
2021/06/13 03:13:21;;;;;;;7.90;7.17;;;16.50;99.90;;;;;;4862038;29;20201;-95
2021/06/13 03:15:48;;;;;;;7.57;6.80;;;16.60;99.90;;;;;;4861372;29;20510;-93
2021/06/13 03:18:17;;;;;;;7.43;6.80;;;16.60;99.90;;;;;;4858685;29;20457;-93
2021/06/13 03:20:43;;;;;;;6.87;6.23;;;16.60;99.90;;;;;;4863679;29;20562;-96
2021/06/13 03:23:09;;;;;;;6.47;5.93;;;16.50;99.90;;;;;;4859285;29;20585;-95
2021/06/13 03:25:36;;;;;;;8.07;6.50;;;16.60;99.90;;;;;;4869258;29;20553;-96
2021/06/13 03:28:07;;;;;;;9.57;6.30;;;16.70;99.90;;;;;;4861681;29;20237;-95
2021/06/13 03:30:34;;;;;;;6.93;6.30;;;16.80;99.90;;;;;;4861357;29;20457;-94
2021/06/13 03:33:01;;;;;;;7.77;6.97;;;16.70;99.90;;;;;;4855695;29;20508;-93
2021/06/13 03:35:27;;;;;;;7.73;6.73;;;16.80;99.90;;;;;;4869030;29;20821;-93
2021/06/13 03:37:54;;;;;;;7.73;6.90;;;16.80;99.90;;;;;;4861805;29;20457;-94
2021/06/13 03:40:21;;;;;;;7.80;7.00;;;16.70;99.90;;;;;;4854930;29;20331;-94
2021/06/13 03:42:50;;;;;;;7.70;6.93;;;16.70;99.90;;;;;;4857802;29;20502;-94
2021/06/13 03:45:16;;;;;;;7.50;6.63;;;16.70;99.90;;;;;;4856058;29;20459;-93
2021/06/13 03:47:42;;;;;;;7.40;6.70;;;16.60;99.90;;;;;;4858033;29;21533;-94
2021/06/13 03:50:10;;;;;;;7.63;6.83;;;16.60;99.90;;;;;;4854918;29;20451;-94
2021/06/13 03:52:37;;;;;;;7.03;6.43;;;16.60;99.90;;;;;;4859878;29;20451;-93
2021/06/13 03:55:03;;;;;;;8.90;7.03;;;16.60;99.90;;;;;;4857059;29;20450;-92
2021/06/13 03:57:30;;;;;;;11.80;7.13;;;16.50;99.90;;;;;;4854592;29;20527;-93
2021/06/13 03:59:58;;;;;;;7.00;6.40;;;16.50;99.90;;;;;;4859863;29;20482;-92
2021/06/13 04:02:25;;;;;;;8.23;6.97;;;16.40;99.90;;;;;;4856979;29;20443;-93
2021/06/13 04:04:51;;;;;;;8.40;7.53;;;16.30;99.90;;;;;;4858146;29;21059;-93
2021/06/13 04:07:18;;;;;;;7.80;7.00;;;16.20;99.90;;;;;;4858578;29;20438;-94
2021/06/13 04:09:45;;;;;;;7.87;7.10;;;16.20;99.90;;;;;;4863823;29;20544;-96
2021/06/13 04:12:17;;;;;;;12.77;8.20;;;16.10;99.90;;;;;;4860189;29;20439;-96
2021/06/13 04:14:45;;;;;;;8.33;7.50;;;16.10;99.90;;;;;;4853965;29;20533;-96
2021/06/13 04:17:14;;;;;;;8.00;7.17;;;16.00;99.90;;;;;;4860403;29;20450;-96
2021/06/13 04:19:40;;;;;;;7.87;7.20;;;16.00;99.90;;;;;;4874089;29;20490;-96
2021/06/13 04:22:10;;;;;;;8.07;7.27;;;15.90;99.90;;;;;;4867328;29;20539;-96
2021/06/13 04:24:36;;;;;;;9.93;6.80;;;15.90;99.90;;;;;;4860339;29;21050;-96
2021/06/13 04:27:02;;;;;;;8.67;7.87;;;15.90;99.90;;;;;;4856674;29;20434;-96
2021/06/13 04:29:28;;;;;;;7.97;7.27;;;15.80;99.90;;;;;;4861931;29;20497;-95
2021/06/13 04:31:54;;;;;;;8.90;7.67;;;15.90;99.90;;;;;;4859715;29;21267;-96
2021/06/13 04:34:19;;;;;;;10.27;8.30;;;15.90;99.90;;;;;;4862229;29;20764;-96
2021/06/13 04:36:45;;;;;;;12.40;8.10;;;16.00;99.90;;;;;;4860802;29;20848;-94
2021/06/13 04:39:13;;;;;;;10.40;7.43;;;16.00;99.90;;;;;;4855967;29;20294;-95
2021/06/13 04:41:39;;;;;;;7.90;7.20;;;16.00;99.90;;;;;;4861884;29;20661;-95
2021/06/13 04:44:07;;;;;;;8.00;6.83;;;16.10;99.90;;;;;;4863147;29;21154;-94
2021/06/13 04:46:33;;;;;;;7.33;6.53;;;16.20;99.90;;;;;;4860459;29;20185;-94
2021/06/13 04:49:09;;;;;;;9.03;6.80;;;16.20;99.90;;;;;;4860635;29;20442;-96
2021/06/13 04:51:37;;;;;;;8.23;7.30;;;16.30;99.90;;;;;;4865151;29;20265;-94
2021/06/13 04:54:08;;;;;;;7.00;6.30;;;16.30;99.90;;;;;;4862520;29;20983;-93
2021/06/13 04:57:02;;;;;;;7.50;6.80;;;16.40;99.90;;;;;;4862151;29;20450;-94
2021/06/13 04:59:28;;;;;;;7.80;6.93;;;16.50;99.90;;;;;;4857037;29;20473;-94
2021/06/13 05:01:54;;;;;;;8.33;7.00;;;16.50;99.90;;;;;;4860960;29;20458;-93
2021/06/13 05:04:22;;;;;;;10.23;7.30;;;16.50;99.90;;;;;;4861052;29;20757;-95
2021/06/13 05:06:48;;;;;;;8.07;7.27;;;16.50;99.90;;;;;;4863540;29;20482;-94
2021/06/13 05:09:14;;;;;;;8.73;7.13;;;16.50;99.90;;;;;;4863386;29;20304;-94
2021/06/13 05:11:40;;;;;;;7.90;6.90;;;16.40;99.90;;;;;;4868113;29;20203;-93
2021/06/13 05:14:06;;;;;;;9.87;7.87;;;16.40;99.90;;;;;;4855569;29;20553;-93
2021/06/13 05:16:32;;;;;;;7.57;6.87;;;16.40;99.90;;;;;;4862819;29;20189;-93
2021/06/13 05:18:57;;;;;;;7.70;6.67;;;16.50;99.90;;;;;;4854686;29;20482;-93
2021/06/13 05:21:23;;;;;;;11.00;6.73;;;16.60;99.90;;;;;;4859365;29;21120;-93
2021/06/13 05:23:49;;;;;;;7.57;6.83;;;16.60;99.90;;;;;;4853746;29;20697;-91
2021/06/13 05:26:14;;;;;;;8.50;6.87;;;16.60;99.90;;;;;;4856440;29;20212;-93
2021/06/13 05:28:40;;;;;;;7.73;6.60;;;16.70;99.90;;;;;;4864207;29;20201;-93
2021/06/13 05:31:07;;;;;;;9.00;6.87;;;16.70;99.90;;;;;;4862980;29;20204;-93
2021/06/13 05:36:07;;;;;;;8.60;5.97;;;16.80;99.90;;;;;;4865119;29;20520;-94
2021/06/13 05:38:35;;;;;;;10.20;6.83;;;17.00;99.90;;;;;;4861287;29;20476;-93
2021/06/13 05:41:01;;;;;;;7.30;6.30;;;17.00;99.90;;;;;;4864459;29;21329;-92
2021/06/13 05:43:27;;;;;;;7.80;5.90;;;17.00;99.90;;;;;;4862091;29;20551;-95
2021/06/13 05:45:52;;;;;;;8.37;6.13;;;17.10;99.90;;;;;;4858847;29;20201;-95
2021/06/13 05:48:18;;;;;;;7.03;5.80;;;17.20;99.90;;;;;;4860650;29;20604;-95
2021/06/13 05:50:44;;;;;;;7.27;6.17;;;17.30;99.90;;;;;;4858448;29;20230;-94
2021/06/13 05:53:09;;;;;;;6.60;6.00;;;17.40;99.90;;;;;;4860312;29;20204;-94
2021/06/13 05:55:36;;;;;;;6.87;5.93;;;17.40;99.90;;;;;;4862900;29;20214;-94
2021/06/13 05:58:02;;;;;;;6.90;6.10;;;17.60;99.90;;;;;;4873762;29;20265;-95
2021/06/13 06:00:31;;;;;;;7.07;6.37;;;17.60;99.90;;;;;;4861088;29;20949;-95
2021/06/13 06:02:57;;;;;;;6.10;5.50;;;17.60;99.90;;;;;;4868365;29;20458;-95
2021/06/13 06:05:23;;;;;;;7.10;5.67;;;17.40;99.90;;;;;;4862007;29;20900;-94
2021/06/13 06:07:50;;;;;;;10.33;6.10;;;17.30;99.90;;;;;;4865430;29;20185;-94
2021/06/13 06:10:18;;;;;;;7.10;5.67;;;17.40;99.90;;;;;;4863266;29;20521;-95
2021/06/13 06:12:50;;;;;;;5.80;5.33;;;17.60;99.90;;;;;;4862443;29;20461;-95
2021/06/13 06:15:22;;;;;;;8.07;5.80;;;17.70;99.90;;;;;;4862522;29;20457;-95
2021/06/13 06:17:49;;;;;;;6.60;5.97;;;17.80;99.90;;;;;;4860004;29;20553;-93
2021/06/13 06:20:18;;;;;;;6.30;5.70;;;17.90;99.90;;;;;;4862675;29;20569;-94
2021/06/13 06:22:43;;;;;;;5.93;5.30;;;18.00;99.90;;;;;;4862974;29;20793;-95
2021/06/13 06:25:10;;;;;;;6.90;5.67;;;18.00;99.90;;;;;;4865483;29;20464;-94
2021/06/13 06:27:37;;;;;;;6.77;5.40;;;18.00;99.90;;;;;;4859471;29;20289;-96
2021/06/13 06:30:04;;;;;;;7.90;5.50;;;18.00;99.90;;;;;;4861589;29;20935;-94
2021/06/13 06:32:31;;;;;;;6.63;5.87;;;18.00;99.90;;;;;;4863516;29;20979;-94
2021/06/13 06:34:56;;;;;;;6.03;5.47;;;18.10;99.90;;;;;;4863008;29;20661;-94
2021/06/13 06:37:22;;;;;;;5.30;4.80;;;18.20;99.90;;;;;;4866381;29;20987;-94
2021/06/13 06:39:48;;;;;;;5.90;5.30;;;18.20;99.90;;;;;;4865346;29;20228;-93
2021/06/13 06:42:16;;;;;;;5.50;5.00;;;18.20;99.90;;;;;;4861096;29;20194;-93
2021/06/13 06:44:41;;;;;;;6.30;5.70;;;18.40;99.90;;;;;;4861992;29;20209;-94
2021/06/13 06:47:07;;;;;;;7.80;6.10;;;18.50;99.90;;;;;;4861839;29;20458;-93
2021/06/13 06:49:33;;;;;;;6.60;5.57;;;18.40;99.90;;;;;;4861901;29;20198;-93
2021/06/13 06:52:00;;;;;;;10.13;5.90;;;18.20;99.90;;;;;;4859023;29;20438;-93
2021/06/13 06:54:26;;;;;;;6.23;5.63;;;18.10;99.90;;;;;;4864046;29;20492;-94
2021/06/13 06:56:52;;;;;;;8.20;5.57;;;18.20;99.90;;;;;;4859764;29;20517;-95
2021/06/13 06:59:18;;;;;;;6.40;5.80;;;18.30;99.90;;;;;;4863525;29;20545;-95
2021/06/13 07:01:44;;;;;;;7.10;4.90;;;18.20;99.90;;;;;;4860579;29;20972;-91
2021/06/13 07:04:10;;;;;;;5.90;5.30;;;18.30;99.90;;;;;;4853562;29;20193;-92
2021/06/13 07:06:35;;;;;;;6.47;6.00;;;18.20;99.90;;;;;;4853209;29;20511;-93
2021/06/13 07:09:02;;;;;;;7.00;5.83;;;18.20;99.90;;;;;;4851813;29;20571;-92
2021/06/13 07:11:27;;;;;;;6.13;5.37;;;18.10;99.90;;;;;;4853069;29;20213;-94
2021/06/13 07:13:53;;;;;;;5.87;5.37;;;18.10;99.90;;;;;;4859107;29;20839;-95
2021/06/13 07:16:19;;;;;;;6.73;5.20;;;18.20;99.90;;;;;;4859153;29;20578;-93
2021/06/13 07:18:44;;;;;;;7.40;5.57;;;18.40;99.90;;;;;;4852716;29;20221;-95
2021/06/13 07:21:13;;;;;;;9.00;5.87;;;18.50;99.50;;;;;;4859977;29;20383;-95
2021/06/13 07:23:38;;;;;;;6.83;6.10;;;18.50;99.90;;;;;;4845153;29;20392;-95
2021/06/13 07:26:06;;;;;;;9.83;5.73;;;18.80;99.90;;;;;;4852529;29;20552;-94
2021/06/13 07:28:33;;;;;;;5.40;4.90;;;18.60;98.00;;;;;;4852413;29;20384;-93
2021/06/13 07:31:00;;;;;;;5.37;4.87;;;18.50;99.70;;;;;;4857347;29;20566;-92
2021/06/13 07:33:35;;;;;;;5.67;5.17;;;18.70;99.40;;;;;;4851352;29;20470;-94
2021/06/13 07:36:01;;;;;;;6.20;5.67;;;18.70;99.90;;;;;;4858026;29;20476;-94
2021/06/13 07:38:27;;;;;;;6.30;5.70;;;18.80;99.90;;;;;;4855348;29;20450;-94
2021/06/13 07:40:53;;;;;;;10.53;5.70;;;19.00;99.20;;;;;;4857328;29;20202;-94
2021/06/13 07:43:19;;;;;;;6.63;6.00;;;19.00;98.50;;;;;;4859509;29;20964;-94
2021/06/13 07:45:45;;;;;;;5.50;5.00;;;19.20;99.60;;;;;;4858351;29;20557;-92
2021/06/13 07:48:12;;;;;;;6.90;5.30;;;19.40;99.80;;;;;;4852643;29;20466;-91
2021/06/13 07:50:40;;;;;;;5.97;5.33;;;19.60;99.20;;;;;;4860553;29;20209;-92
2021/06/13 07:53:06;;;;;;;5.97;5.33;;;19.90;99.70;;;;;;4864631;29;20454;-93
2021/06/13 07:55:32;;;;;;;5.60;5.20;;;19.60;99.20;;;;;;4864150;29;20775;-91
2021/06/13 07:57:58;;;;;;;6.70;5.33;;;19.70;98.10;;;;;;4862680;29;20466;-89
2021/06/13 08:00:24;;;;;;;6.03;5.33;;;19.50;97.80;;;;;;4853391;29;20382;-88
2021/06/13 08:02:52;;;;;;;6.60;5.20;;;19.50;98.70;;;;;;4847002;29;20478;-88
2021/06/13 08:05:25;;;;;;;5.43;4.93;;;19.60;97.90;;;;;;4853554;29;20585;-93
2021/06/13 08:08:03;;;;;;;5.60;5.10;;;19.60;97.30;;;;;;4865531;29;20454;-94
2021/06/13 08:10:29;;;;;;;6.13;5.57;;;20.00;97.80;;;;;;4861024;29;20469;-95
2021/06/13 08:12:56;;;;;;;5.10;4.63;;;19.30;95.40;;;;;;4855767;29;23225;-94
2021/06/13 08:15:21;;;;;;;6.00;5.40;;;19.30;96.40;;;;;;4857550;29;20760;-93
2021/06/13 08:17:48;;;;;;;6.73;6.00;;;19.50;96.50;;;;;;4857628;29;20454;-96
2021/06/13 08:20:15;;;;;;;5.97;5.40;;;19.60;97.50;;;;;;4873006;29;20225;-92
2021/06/13 08:22:41;;;;;;;6.80;5.83;;;19.20;97.00;;;;;;4874885;29;20458;-93
2021/06/13 08:25:07;;;;;;;6.23;5.63;;;19.00;97.80;;;;;;4857888;29;20470;-92
2021/06/13 08:27:33;;;;;;;4.87;4.37;;;19.00;97.10;;;;;;4855256;29;20458;-94
2021/06/13 08:29:59;;;;;;;6.93;6.23;;;19.50;98.20;;;;;;4852635;29;20498;-92
2021/06/13 08:32:37;;;;;;;8.17;5.80;;;20.00;98.60;;;;;;4853103;29;20226;-93
2021/06/13 08:35:04;;;;;;;8.63;5.97;;;20.50;98.30;;;;;;4854701;29;20209;-91
2021/06/13 08:37:30;;;;;;;5.77;5.27;;;20.80;96.10;;;;;;4859649;29;20861;-89
2021/06/13 08:39:55;;;;;;;6.30;5.00;;;20.80;96.30;;;;;;4857926;29;20625;-89
2021/06/13 08:42:21;;;;;;;7.70;5.90;;;20.70;96.70;;;;;;4856976;29;20997;-89
2021/06/13 08:44:48;;;;;;;7.60;5.63;;;20.30;95.50;;;;;;4875703;29;20296;-89
2021/06/13 08:47:19;;;;;;;6.50;5.90;;;20.00;96.00;;;;;;4862779;29;20461;-88
2021/06/13 08:49:46;;;;;;;7.30;5.80;;;20.10;96.80;;;;;;4861359;29;20487;-89
2021/06/13 08:52:13;;;;;;;6.20;4.60;;;20.30;97.30;;;;;;4858598;29;20438;-88
2021/06/13 08:54:39;;;;;;;7.07;5.80;;;20.40;97.60;;;;;;4861338;29;20908;-88
2021/06/13 08:57:06;;;;;;;9.70;5.53;;;20.70;98.10;;;;;;4856696;29;20473;-96
2021/06/13 08:59:32;;;;;;;5.73;5.20;;;21.10;97.50;;;;;;4865384;29;20489;-96
2021/06/13 09:02:17;;;;;;;7.53;5.20;;;21.40;97.10;;;;;;4889880;29;21014;-93
2021/06/13 09:04:44;;;;;;;6.70;5.03;;;21.60;96.30;;;;;;4859054;29;20326;-96
2021/06/13 09:07:15;;;;;;;5.93;5.43;;;21.50;96.60;;;;;;4868122;29;20462;-95
2021/06/13 09:09:41;;;;;;;6.67;5.90;;;21.60;96.90;;;;;;4868700;29;20464;-94
2021/06/13 09:12:08;;;;;;;6.30;5.80;;;21.30;95.00;;;;;;4865873;29;20445;-96
2021/06/13 09:14:42;;;;;;;5.43;4.63;;;21.30;97.40;;;;;;4867230;29;20488;-95
2021/06/13 09:17:47;;;;;;;5.03;4.63;;;21.50;95.80;;;;;;4857909;29;21024;-96
2021/06/13 09:20:22;;;;;;;7.60;6.23;;;21.50;94.80;;;;;;4829424;29;20952;-96
2021/06/13 09:23:03;;;;;;;5.57;5.03;;;21.80;96.40;;;;;;4829125;29;20451;-95
2021/06/13 09:25:30;;;;;;;6.23;5.37;;;21.80;95.00;;;;;;4870060;29;20955;-96
2021/06/13 09:28:28;;;;;;;6.97;4.53;;;21.70;95.80;;;;;;4870017;29;20545;-95
2021/06/13 09:30:58;;;;;;;6.63;6.13;;;21.80;96.10;;;;;;4871110;29;20458;-96
2021/06/13 09:33:30;;;;;;;5.30;4.80;;;22.10;94.60;;;;;;4861413;29;20473;-94
2021/06/13 09:36:04;;;;;;;5.47;4.90;;;21.40;96.00;;;;;;4869492;29;20545;-96
2021/06/13 09:38:42;;;;;;;7.30;5.50;;;21.50;96.40;;;;;;4860566;29;20458;-96
2021/06/13 09:41:15;;;;;;;6.47;5.73;;;21.90;96.50;;;;;;4860574;29;20451;-95
2021/06/13 09:43:42;;;;;;;7.53;5.00;;;22.10;94.20;;;;;;4861894;29;20470;-93
2021/06/13 09:46:21;;;;;;;6.40;5.07;;;21.30;93.30;;;;;;4863293;29;20458;-94
2021/06/13 09:48:59;;;;;;;8.37;4.83;;;21.50;97.00;;;;;;4873668;29;20506;-96
2021/06/13 09:51:32;;;;;;;5.70;4.83;;;21.90;96.00;;;;;;4880019;29;20492;-96
2021/06/13 09:54:00;;;;;;;8.90;5.53;;;22.20;95.00;;;;;;4879092;29;20457;-95
2021/06/13 09:56:38;;;;;;;8.20;5.33;;;22.40;95.80;;;;;;4860170;29;20453;-95
2021/06/13 09:59:07;;;;;;;5.33;4.93;;;22.60;93.40;;;;;;4862250;29;20496;-93
2021/06/13 10:01:52;;;;;;;6.10;5.13;;;22.30;92.50;;;;;;4864845;29;20461;-95
2021/06/13 10:04:17;;;;;;;5.40;5.00;;;22.10;94.50;;;;;;4861706;29;20331;-94
2021/06/13 10:06:49;;;;;;;5.60;5.10;;;22.30;94.80;;;;;;4865138;29;20533;-95
2021/06/13 10:09:30;;;;;;;6.20;4.80;;;22.50;95.70;;;;;;4861036;29;20225;-94
2021/06/13 10:12:21;;;;;;;5.33;4.93;;;22.60;96.00;;;;;;4862988;29;20457;-95
2021/06/13 10:14:48;;;;;;;5.30;4.80;;;22.60;93.10;;;;;;4856835;29;20836;-92
2021/06/13 10:17:16;;;;;;;5.30;4.80;;;21.80;93.60;;;;;;4858413;29;20451;-94
2021/06/13 10:19:46;;;;;;;5.60;4.90;;;21.50;94.10;;;;;;4858982;29;20502;-92
2021/06/13 10:22:16;;;;;;;5.17;4.53;;;22.00;96.50;;;;;;4855131;29;20459;-92
2021/06/13 10:24:47;;;;;;;5.37;4.87;;;22.60;94.40;;;;;;4858112;29;20486;-94
2021/06/13 10:27:18;;;;;;;5.10;4.60;;;23.00;93.20;;;;;;4861588;29;20557;-95
2021/06/13 10:33:01;;;;;;;6.07;4.73;;;23.20;94.00;;;;;;4863530;29;20458;-94
2021/06/13 10:35:27;;;;;;;8.93;4.70;;;23.10;93.80;;;;;;4860773;29;20461;-89
2021/06/13 10:37:53;;;;;;;5.67;5.17;;;23.40;93.20;;;;;;4858365;29;20447;-90
2021/06/13 10:40:19;;;;;;;5.40;4.47;;;23.80;93.90;;;;;;4855129;29;21008;-89
2021/06/13 10:42:44;;;;;;;7.67;4.83;;;24.00;92.00;;;;;;4854951;29;20232;-90
2021/06/13 10:45:11;;;;;;;4.50;4.10;;;23.70;92.50;;;;;;4856220;29;20673;-88
2021/06/13 10:47:39;;;;;;;5.30;4.80;;;24.10;92.70;;;;;;4858415;29;20213;-89
2021/06/13 10:50:09;;;;;;;5.80;5.20;;;23.70;90.60;;;;;;4856060;29;20845;-89
2021/06/13 10:52:35;;;;;;;5.50;5.00;;;23.30;90.30;;;;;;4855790;29;20953;-93
2021/06/13 10:55:06;;;;;;;7.33;5.03;;;23.40;92.50;;;;;;4857468;29;20468;-92
2021/06/13 10:57:45;;;;;;;8.63;4.40;;;23.70;92.00;;;;;;4857927;29;20873;-92
2021/06/13 11:00:20;;;;;;;4.50;3.93;;;23.80;91.20;;;;;;4852624;29;20540;-93
2021/06/13 11:02:50;;;;;;;4.50;4.10;;;23.80;90.30;;;;;;4858535;29;20480;-93
2021/06/13 11:05:35;;;;;;;6.57;4.70;;;23.40;84.20;;;;;;4855374;29;20522;-93
2021/06/13 11:08:00;;;;;;;3.70;3.23;;;23.30;91.50;;;;;;4856603;29;20544;-91
2021/06/13 11:10:30;;;;;;;4.87;3.47;;;23.50;88.20;;;;;;4859468;29;20480;-93
2021/06/13 11:12:55;;;;;;;4.90;3.43;;;23.70;88.20;;;;;;4846597;29;20205;-93
2021/06/13 11:15:38;;;;;;;3.77;3.40;;;24.00;85.50;;;;;;4860530;29;20485;-91
2021/06/13 11:18:27;;;;;;;3.60;3.30;;;23.40;78.50;;;;;;4860350;29;20636;-90
2021/06/13 11:21:22;;;;;;;3.33;3.03;;;23.30;80.20;;;;;;4858537;29;20461;-91
2021/06/13 11:23:49;;;;;;;3.33;3.03;;;24.00;87.30;;;;;;4848719;29;20566;-89
2021/06/13 11:26:33;;;;;;;5.70;3.17;;;23.70;81.30;;;;;;4854459;29;20469;-92
2021/06/13 11:28:59;;;;;;;3.87;3.40;;;23.70;82.20;;;;;;4859404;29;22096;-91
2021/06/13 11:31:26;;;;;;;3.97;3.63;;;24.00;85.10;;;;;;4856303;29;20485;-90
2021/06/13 11:33:55;;;;;;;4.03;3.70;;;24.00;81.40;;;;;;4857998;29;20457;-91
2021/06/13 11:36:25;;;;;;;4.07;3.67;;;24.10;83.10;;;;;;4852861;29;20987;-90
2021/06/13 11:39:16;;;;;;;4.60;4.20;;;24.60;81.20;;;;;;4858130;29;21013;-90
2021/06/13 11:41:49;;;;;;;5.17;3.93;;;24.40;80.40;;;;;;4847031;29;20458;-90
2021/06/13 11:44:21;;;;;;;4.40;4.03;;;24.30;82.60;;;;;;4855918;29;20458;-89
2021/06/13 11:46:49;;;;;;;3.50;3.30;;;24.60;81.00;;;;;;4872810;29;20573;-90
2021/06/13 11:49:20;;;;;;;3.13;2.87;;;24.90;80.20;;;;;;4857878;29;20443;-90
2021/06/13 11:52:01;;;;;;;3.10;2.90;;;25.30;80.60;;;;;;4858961;29;20458;-90
2021/06/13 11:54:34;;;;;;;3.30;3.00;;;25.20;75.00;;;;;;4859064;29;20913;-90
2021/06/13 11:57:03;;;;;;;3.10;2.90;;;25.60;77.80;;;;;;4857302;29;20450;-90
2021/06/13 11:59:29;;;;;;;3.07;2.77;;;25.20;70.90;;;;;;4857014;29;20498;-90
2021/06/13 12:02:01;;;;;;;3.20;2.60;;;24.50;67.10;;;;;;4855902;29;20545;-91
2021/06/13 12:04:29;;;;;;;3.53;3.23;;;24.30;65.80;;;;;;4869378;29;20190;-91
2021/06/13 12:06:56;;;;;;;5.03;3.70;;;24.40;74.30;;;;;;4859543;29;20454;-90
2021/06/13 12:09:23;;;;;;;3.67;3.37;;;25.00;80.50;;;;;;4852373;29;20446;-91
2021/06/13 12:12:00;;;;;;;3.83;3.50;;;25.40;74.50;;;;;;4858073;29;20462;-90
2021/06/13 12:14:39;;;;;;;3.60;3.30;;;25.70;79.10;;;;;;4864221;29;21221;-91
2021/06/13 12:17:15;;;;;;;3.60;2.90;;;25.90;79.50;;;;;;4866265;29;20993;-91
2021/06/13 12:19:40;;;;;;;3.00;2.80;;;25.40;73.00;;;;;;4864008;29;20512;-90
2021/06/13 12:22:16;;;;;;;2.60;2.40;;;25.60;69.90;;;;;;4863943;29;20462;-90
2021/06/13 12:27:22;;;;;;;3.03;2.57;;;24.40;61.90;;;;;;4860179;29;20458;-89
2021/06/13 12:29:56;;;;;;;2.60;2.40;;;24.40;60.20;;;;;;4861349;29;20193;-90
2021/06/13 12:32:22;;;;;;;2.30;2.10;;;24.30;62.60;;;;;;4861628;29;20449;-90
2021/06/13 12:34:54;;;;;;;3.70;2.47;;;24.70;55.80;;;;;;4860617;29;20521;-89
2021/06/13 12:37:24;;;;;;;2.87;2.67;;;25.20;62.90;;;;;;4859417;29;20565;-90
2021/06/13 12:39:59;;;;;;;2.80;2.60;;;25.80;65.50;;;;;;4861669;29;20489;-91
2021/06/13 12:42:26;;;;;;;3.57;3.13;;;26.10;65.50;;;;;;4861397;29;21038;-90
2021/06/13 12:45:11;;;;;;;4.80;2.97;;;26.30;67.40;;;;;;4861987;29;20454;-91
2021/06/13 12:47:42;;;;;;;3.03;2.87;;;26.20;68.80;;;;;;4864569;29;21201;-91
2021/06/13 12:50:10;;;;;;;4.47;3.10;;;26.60;66.60;;;;;;4859053;29;20465;-91
2021/06/13 12:52:46;;;;;;;3.23;2.93;;;26.80;70.70;;;;;;4859216;29;20466;-90
2021/06/13 12:55:12;;;;;;;3.00;2.80;;;27.00;64.60;;;;;;4862341;29;20469;-90
2021/06/13 12:57:40;;;;;;;3.43;2.80;;;27.20;62.50;;;;;;4862191;29;20544;-91
2021/06/13 13:00:09;;;;;;;4.23;2.97;;;27.40;63.20;;;;;;4857899;29;21356;-91
2021/06/13 13:02:34;;;;;;;3.40;3.10;;;28.00;63.30;;;;;;4860409;29;20489;-90
2021/06/13 13:05:00;;;;;;;2.90;2.37;;;27.80;57.50;;;;;;4857360;29;20549;-91
2021/06/13 13:07:34;;;;;;;3.57;2.37;;;27.40;62.00;;;;;;4868400;29;20350;-90